Řízení letového provozu České republiky  
Aktualizace dat:  20.01.2019 11:30:07 UTC English version
   METEO Zobrazení stránky:  20.01.2019 11:30:47 UTC  
vysvětlivky
METAR EDDB 201120Z VRB02KT CAVOK M00/M03 Q1019 NOSIG=
METAR EDDC 201120Z 08004KT 050V120 9999 FEW030 00/M06 Q1017 NOSIG=
METAR EDDE 201120Z 04003KT CAVOK M03/M07 Q1016 NOSIG=
METAR EDDF 201120Z 07006KT 040V100 CAVOK M01/M06 Q1016 NOSIG=
METAR EDDM 201120Z 04003KT 320V100 6000 SCT006 M03/M05 Q1014 NOSIG=
METAR EDDN 201120Z 10006KT CAVOK M02/M07 Q1015 NOSIG=
METAR EDDP 201120Z 12004KT 040V190 CAVOK M01/M06 Q1018 NOSIG=
METAR EDDT 201120Z AUTO VRB03KT //// R08L/P2000N R08R/P2000N // ///////// 00/M04 Q1019 NOSIG=
METAR EDQM 201120Z 14006KT 100V190 9999 OVC009 M05/M07 Q1014=
METAR EPBY 201100Z 33009KT 9999 OVC017 M02/M06 Q1019 =
METAR EPGD 201100Z 26010KT 9999 BKN011 M01/M04 Q1016 =
METAR EPKK 201100Z VRB02KT 5000 BR BKN060 M03/M06 Q1016 =
METAR EPKT 201100Z VRB02KT 8000 NSC M02/M06 Q1016 =
METAR EPLL 201100Z VRB02KT 5000 BR NSC M00/M04 Q1017 =
METAR EPPO 201100Z 00000KT 4000 BR FEW020 01/M04 Q1019 =
METAR EPRZ 201100Z VRB01KT 7000 FEW005 M03/M05 Q1016 =
METAR EPWA 201100Z 29003KT 250V330 7000 NSC M01/M05 Q1018 NOSIG=
METAR EPWR 201100Z VRB01KT 5000 BR NSC M02/M04 Q1018 =
METAR LHBP 201100Z VRB03KT 4500 -SNRA BR FEW008 SCT016 OVC026 M00/M01 Q1016 R88/620195 TEMPO 5000 BR BKN008 OVC020=
METAR LHSM 201045Z 05001KT 5000 BR OVC007 01/00 Q1016 BECMG 6000 NSW BKN010=
METAR LKBC 201100Z AUTO VRB02KT 9999 OVC023 M02/M05 Q1013=
METAR LKCV 201100Z VRB02KT 9999 BKN028 M01/M04 Q1016 NOSIG RMK BLU BLU=
METAR LKKB 201100Z VRB02KT 9000 OVC031 M03/M06 Q1016 NOSIG RMK BLU BLU=
METAR LKKU NIL
METAR LKKV 201100Z 11006KT 9999 OVC011 M05/M07 Q1014 R29/720295 RMK REG QNH 1010=
METAR LKLN 201130Z AUTO VRB02KT 9999 OVC021 M02/M04 Q1016=
METAR LKMT 201100Z 04004KT 3000 BR NSC M02/M05 Q1016 R04/31//95 TEMPO 5000 BR RMK REG QNH 1010=
METAR LKNA 201100Z 15003KT 120V200 9999 BKN019 OVC024 M02/M06 Q1014 NOSIG RMK WHT WHT=
METAR LKPD 201100Z 12003KT 100V170 8000 SCT037 BKN050 M00/M06 Q1017 NOSIG RMK BLU BLU=
METAR LKPR 201100Z 33004KT 290V350 8000 OVC027 M04/M05 Q1016 NOSIG RMK REG QNH 1010=
METAR LKTB 201100Z 08005KT 9999 BKN036 00/M06 Q1016 NOSIG RMK REG QNH 1010=
METAR LKVO NIL
METAR LOWI 201120Z VRB01KT CAVOK M02/M09 Q1014 NOSIG=
METAR LOWL 201120Z 09004KT 040V120 9999 FEW012 OVC013 M03/M06 Q1016 NOSIG=
METAR LOWS 201120Z 33003KT 300V360 9999 FEW060 BKN300 M00/M08 Q1014 NOSIG=
METAR LOWW 201120Z VRB02KT 9999 FEW016 BKN018 M00/M04 Q1016 R88/19//95 NOSIG=
METAR LZIB 201100Z VRB02KT 9999 BKN015 00/M03 Q1016 NOSIG=
METAR LZKZ 201100Z 10002KT 4500 -SN BKN030 OVC045 M03/M04 Q1015 NOSIG=
METAR LZMC 201100Z 26002KT 9999 BKN021 01/M05 Q1016=
METAR LZPP 201100Z 03003KT CAVOK 01/M05 Q1016=
METAR LZSL 201100Z 00000KT 9999 BKN062 M01/M07 Q1015=
METAR LZTT 201100Z VRB02KT 9999 BKN053 M04/M09 Q1013 NOSIG=
METAR LZZI 201100Z 06005KT CAVOK M02/M06 Q1015=